createdAt,value
2019-06-26T00:00:47.872Z,8.83
2019-06-26T00:03:14.547Z,8.65
2019-06-26T00:05:41.330Z,11.45
2019-06-26T00:08:08.108Z,8.10
2019-06-26T00:10:34.808Z,9.20
2019-06-26T00:13:01.586Z,9.38
2019-06-26T00:15:28.268Z,8.88
2019-06-26T00:17:55.163Z,9.23
2019-06-26T00:20:21.953Z,9.45
2019-06-26T00:22:48.728Z,8.85
2019-06-26T00:25:15.521Z,7.90
2019-06-26T00:27:42.090Z,8.33
2019-06-26T00:30:09.314Z,10.43
2019-06-26T00:32:35.972Z,8.50
2019-06-26T00:35:03.006Z,9.05
2019-06-26T00:37:29.769Z,8.70
2019-06-26T00:39:56.462Z,9.53
2019-06-26T00:42:23.537Z,8.90
2019-06-26T00:44:50.229Z,9.13
2019-06-26T00:47:16.903Z,9.15
2019-06-26T00:49:43.579Z,9.15
2019-06-26T00:52:10.356Z,9.40
2019-06-26T00:54:37.150Z,9.68
2019-06-26T00:57:27.309Z,10.32
2019-06-26T00:59:54.024Z,9.35
2019-06-26T01:02:21.199Z,9.95
2019-06-26T01:04:49.684Z,9.38
2019-06-26T01:07:16.401Z,10.38
2019-06-26T01:09:43.078Z,9.15
2019-06-26T01:12:09.766Z,10.15
2019-06-26T01:14:36.437Z,9.80
2019-06-26T01:17:03.264Z,9.58
2019-06-26T01:19:30.043Z,10.63
2019-06-26T01:21:56.739Z,10.60
2019-06-26T01:24:23.510Z,10.35
2019-06-26T01:26:50.206Z,10.18
2019-06-26T01:29:16.984Z,9.88
2019-06-26T01:31:43.812Z,10.32
2019-06-26T01:34:10.477Z,9.75
2019-06-26T01:36:37.281Z,10.28
2019-06-26T01:39:05.456Z,9.65
2019-06-26T01:41:32.122Z,11.55
2019-06-26T01:44:13.646Z,9.98
2019-06-26T01:46:27.290Z,9.43
2019-06-26T01:48:54.070Z,9.53
2019-06-26T01:51:20.765Z,10.68
2019-06-26T01:53:47.796Z,10.28
2019-06-26T01:56:14.488Z,10.23
2019-06-26T01:58:41.168Z,11.08
2019-06-26T02:01:07.972Z,10.90
2019-06-26T02:03:34.768Z,10.15
2019-06-26T02:06:01.572Z,13.38
2019-06-26T02:08:28.164Z,10.68
2019-06-26T02:10:54.958Z,11.30
2019-06-26T02:13:21.740Z,11.05
2019-06-26T02:15:49.313Z,11.08
2019-06-26T02:18:35.013Z,11.20
2019-06-26T02:21:01.836Z,10.60
2019-06-26T02:23:28.605Z,11.80
2019-06-26T02:25:55.398Z,10.70
2019-06-26T02:28:22.187Z,11.57
2019-06-26T02:30:48.941Z,11.43
2019-06-26T02:33:15.644Z,12.33
2019-06-26T02:35:42.737Z,11.28
2019-06-26T02:38:09.547Z,11.25
2019-06-26T02:40:36.217Z,11.83
2019-06-26T02:43:06.798Z,11.15
2019-06-26T02:45:31.697Z,11.45
2019-06-26T02:47:58.526Z,12.07
2019-06-26T02:50:25.689Z,11.60
2019-06-26T02:52:52.480Z,11.03
2019-06-26T02:55:19.279Z,12.00
2019-06-26T02:57:45.966Z,12.82
2019-06-26T03:00:12.748Z,13.65
2019-06-26T03:02:39.537Z,11.63
2019-06-26T03:05:06.316Z,11.43
2019-06-26T03:07:33.108Z,11.60
2019-06-26T03:09:59.787Z,12.00
2019-06-26T03:12:26.580Z,12.60
2019-06-26T03:15:07.828Z,14.25
2019-06-26T03:17:21.791Z,12.18
2019-06-26T03:19:48.578Z,12.37
2019-06-26T03:22:16.470Z,12.45
2019-06-26T03:24:43.479Z,12.37
2019-06-26T03:27:10.285Z,14.23
2019-06-26T03:29:36.848Z,13.05
2019-06-26T03:32:03.665Z,12.45
2019-06-26T03:34:30.336Z,12.37
2019-06-26T03:36:57.037Z,12.03
2019-06-26T03:39:23.625Z,11.28
2019-06-26T03:41:50.433Z,13.35
2019-06-26T03:44:17.002Z,12.43
2019-06-26T03:47:06.056Z,12.98
2019-06-26T03:49:33.036Z,12.80
2019-06-26T03:51:59.825Z,13.45
2019-06-26T03:54:26.633Z,14.73
2019-06-26T03:56:53.600Z,12.60
2019-06-26T03:59:20.166Z,12.37
2019-06-26T04:01:46.918Z,12.78
2019-06-26T04:04:15.970Z,13.08
2019-06-26T04:06:42.737Z,12.73
2019-06-26T04:09:09.327Z,12.28
2019-06-26T04:11:36.029Z,13.83
2019-06-26T04:14:02.722Z,12.35
2019-06-26T04:16:29.417Z,13.95
2019-06-26T04:18:56.017Z,12.95
2019-06-26T04:21:22.786Z,12.45
2019-06-26T04:23:49.577Z,12.47
2019-06-26T04:26:16.650Z,13.15
2019-06-26T04:28:43.400Z,13.28
2019-06-26T04:31:10.201Z,13.32
2019-06-26T04:33:36.866Z,12.65
2019-06-26T04:36:03.685Z,13.13
2019-06-26T04:38:30.227Z,12.55
2019-06-26T04:40:59.091Z,12.60
2019-06-26T04:43:25.765Z,13.72
2019-06-26T04:45:58.032Z,14.10
2019-06-26T04:48:21.049Z,12.28
2019-06-26T04:50:47.712Z,14.10
2019-06-26T04:53:14.493Z,13.68
2019-06-26T04:55:41.157Z,13.20
2019-06-26T04:58:07.977Z,13.88
2019-06-26T05:00:34.536Z,13.78
2019-06-26T05:03:01.357Z,12.63
2019-06-26T05:05:39.138Z,13.75
2019-06-26T05:07:56.615Z,13.93
2019-06-26T05:10:23.305Z,13.30
2019-06-26T05:12:50.037Z,13.53
2019-06-26T05:15:16.810Z,14.20
2019-06-26T05:17:43.503Z,13.25
2019-06-26T05:20:10.572Z,13.30
2019-06-26T05:22:37.654Z,12.95
2019-06-26T05:25:05.472Z,14.05
2019-06-26T05:27:32.172Z,13.70
2019-06-26T05:30:18.596Z,12.43
2019-06-26T05:32:45.803Z,12.07
2019-06-26T05:35:35.235Z,15.08
2019-06-26T05:38:02.418Z,13.88
2019-06-26T05:40:29.143Z,13.98
2019-06-26T05:42:56.131Z,15.20
2019-06-26T05:45:22.986Z,13.90
2019-06-26T05:47:49.780Z,13.68
2019-06-26T05:50:21.275Z,13.00
2019-06-26T05:52:48.071Z,12.78
2019-06-26T05:55:14.836Z,12.68
2019-06-26T05:57:42.243Z,13.90
2019-06-26T06:00:11.399Z,14.75
2019-06-26T06:02:38.208Z,13.17
2019-06-26T06:05:05.132Z,13.90
2019-06-26T06:07:32.132Z,13.22
2019-06-26T06:09:59.217Z,15.13
2019-06-26T06:12:26.166Z,15.28
2019-06-26T06:14:52.837Z,13.98
2019-06-26T06:17:19.628Z,14.15
2019-06-26T06:19:46.296Z,15.10
2019-06-26T06:22:13.060Z,14.60
2019-06-26T06:24:39.731Z,14.58
2019-06-26T06:27:06.344Z,12.90
2019-06-26T06:29:33.013Z,14.25
2019-06-26T06:31:59.775Z,13.93
2019-06-26T06:34:26.562Z,13.98
2019-06-26T06:36:53.357Z,14.40
2019-06-26T06:39:20.024Z,17.00
2019-06-26T06:41:46.791Z,15.63
2019-06-26T06:44:14.632Z,16.05
2019-06-26T06:46:41.296Z,16.73
2019-06-26T06:49:08.082Z,15.58
2019-06-26T06:51:34.856Z,14.93
2019-06-26T06:54:01.549Z,16.70
2019-06-26T06:56:29.304Z,15.78
2019-06-26T06:58:55.997Z,15.30
2019-06-26T07:01:22.758Z,15.35
2019-06-26T07:03:50.404Z,15.58
2019-06-26T07:06:17.078Z,17.92
2019-06-26T07:08:43.647Z,14.23
2019-06-26T07:11:10.423Z,14.33
2019-06-26T07:13:39.810Z,13.35
2019-06-26T07:18:33.105Z,13.93
2019-06-26T07:21:00.158Z,14.25
2019-06-26T07:23:26.722Z,13.28
2019-06-26T07:25:53.414Z,12.68
2019-06-26T07:28:20.356Z,12.10
2019-06-26T07:30:47.274Z,13.32
2019-06-26T07:33:13.856Z,12.35
2019-06-26T07:35:40.642Z,14.53
2019-06-26T07:38:07.423Z,12.55
2019-06-26T07:40:34.097Z,13.18
2019-06-26T07:43:00.815Z,11.48
2019-06-26T07:45:27.461Z,13.20
2019-06-26T07:47:54.018Z,14.78
2019-06-26T07:50:20.854Z,11.90
2019-06-26T07:52:47.517Z,13.38
2019-06-26T07:55:14.401Z,13.98
2019-06-26T07:57:41.081Z,12.33
2019-06-26T08:00:08.173Z,13.30
2019-06-26T08:02:34.991Z,14.20
2019-06-26T08:05:01.707Z,13.53
2019-06-26T08:07:30.878Z,12.45
2019-06-26T08:09:57.665Z,12.70
2019-06-26T08:12:24.222Z,12.07
2019-06-26T08:14:50.806Z,13.72
2019-06-26T08:17:17.605Z,13.35
2019-06-26T08:19:44.304Z,14.20
2019-06-26T08:22:11.064Z,14.20
2019-06-26T08:24:37.760Z,15.72
2019-06-26T08:27:04.418Z,12.43
2019-06-26T08:29:31.197Z,14.13
2019-06-26T08:31:57.983Z,15.05
2019-06-26T08:34:24.817Z,14.45
2019-06-26T08:36:51.471Z,13.65
2019-06-26T08:39:18.146Z,14.10
2019-06-26T08:41:46.836Z,14.38
2019-06-26T08:44:13.402Z,14.58
2019-06-26T08:49:25.996Z,17.07
2019-06-26T08:52:12.710Z,13.75
2019-06-26T08:54:39.385Z,15.97
2019-06-26T08:57:06.174Z,14.15
2019-06-26T08:59:34.107Z,17.17
2019-06-26T09:02:00.915Z,14.47
2019-06-26T09:04:27.494Z,14.43
2019-06-26T09:06:55.065Z,13.75
2019-06-26T09:09:24.179Z,13.65
2019-06-26T09:11:51.336Z,14.50
2019-06-26T09:14:18.217Z,19.35
2019-06-26T09:16:45.127Z,17.05
2019-06-26T09:19:13.218Z,15.83
2019-06-26T09:22:00.219Z,16.40
2019-06-26T09:24:26.932Z,16.42
2019-06-26T09:26:53.631Z,15.70
2019-06-26T09:29:23.605Z,16.97
2019-06-26T09:32:16.139Z,17.17
2019-06-26T09:34:42.910Z,13.53
2019-06-26T09:37:09.686Z,14.43
2019-06-26T09:39:38.853Z,16.20
2019-06-26T09:44:32.330Z,15.18
2019-06-26T09:46:59.144Z,14.15
2019-06-26T09:49:25.938Z,14.53
2019-06-26T09:51:52.822Z,13.98
2019-06-26T09:54:19.631Z,15.18
2019-06-26T09:56:46.230Z,13.88
2019-06-26T09:59:13.297Z,13.28
2019-06-26T10:01:40.182Z,15.18
2019-06-26T10:04:28.775Z,13.50
2019-06-26T10:06:55.463Z,12.80
2019-06-26T10:09:22.148Z,14.07
2019-06-26T10:11:48.964Z,14.50
2019-06-26T10:14:15.730Z,15.68
2019-06-26T10:16:42.820Z,13.60
2019-06-26T10:19:10.823Z,13.58
2019-06-26T10:21:37.888Z,12.58
2019-06-26T10:24:27.082Z,14.28
2019-06-26T10:29:25.402Z,13.80
2019-06-26T10:31:52.111Z,12.25
2019-06-26T10:34:19.812Z,12.00
2019-06-26T10:36:46.590Z,11.95
2019-06-26T10:39:13.351Z,12.43
2019-06-26T10:41:40.120Z,12.63
2019-06-26T10:44:06.940Z,11.22
2019-06-26T10:46:55.432Z,10.55
2019-06-26T10:49:27.074Z,13.15
2019-06-26T10:51:50.613Z,11.90
2019-06-26T10:54:17.250Z,12.85
2019-06-26T10:56:44.046Z,12.10
2019-06-26T10:59:10.811Z,11.12
2019-06-26T11:01:38.581Z,9.75
2019-06-26T11:04:06.010Z,7.75
2019-06-26T11:06:36.898Z,8.78
2019-06-26T11:09:01.687Z,9.23
2019-06-26T11:11:28.388Z,13.00
2019-06-26T11:13:55.207Z,8.95
2019-06-26T11:16:21.937Z,8.20
2019-06-26T11:18:48.708Z,8.55
2019-06-26T11:21:15.516Z,7.22
2019-06-26T11:23:42.605Z,8.20
2019-06-26T11:26:09.286Z,8.88
2019-06-26T11:28:36.101Z,7.50
2019-06-26T11:31:03.244Z,8.73
2019-06-26T11:33:30.160Z,8.88
2019-06-26T11:35:59.284Z,10.13
2019-06-26T11:40:52.763Z,8.73
2019-06-26T11:43:19.552Z,7.25
2019-06-26T11:45:46.323Z,8.18
2019-06-26T11:48:13.121Z,9.90
2019-06-26T11:50:39.955Z,7.28
2019-06-26T11:53:06.719Z,9.50
2019-06-26T11:55:33.467Z,8.23
2019-06-26T11:58:00.147Z,8.28
2019-06-26T12:00:27.001Z,7.70
2019-06-26T12:02:53.820Z,8.83
2019-06-26T12:05:21.076Z,8.58
2019-06-26T12:07:47.788Z,9.10
2019-06-26T12:10:14.916Z,7.85
2019-06-26T12:12:42.113Z,8.73
2019-06-26T12:15:09.950Z,8.80
2019-06-26T12:17:36.808Z,7.42
2019-06-26T12:20:17.750Z,7.90
2019-06-26T12:22:33.412Z,8.00
2019-06-26T12:25:00.869Z,7.22
2019-06-26T12:27:27.736Z,7.50
2019-06-26T12:29:54.319Z,8.15
2019-06-26T12:32:21.001Z,8.08
2019-06-26T12:34:47.599Z,7.92
2019-06-26T12:37:14.366Z,7.97
2019-06-26T12:39:40.968Z,7.85
2019-06-26T12:42:07.748Z,9.85
2019-06-26T12:44:34.522Z,7.42
2019-06-26T12:47:01.194Z,6.90
2019-06-26T12:49:27.889Z,7.62
2019-06-26T12:51:55.274Z,7.62
2019-06-26T12:54:21.956Z,7.87
2019-06-26T12:56:48.973Z,7.92
2019-06-26T12:59:15.550Z,7.20
2019-06-26T13:01:42.208Z,7.95
2019-06-26T13:04:09.002Z,8.58
2019-06-26T13:06:35.671Z,7.65
2019-06-26T13:09:03.449Z,7.87
2019-06-26T13:11:30.102Z,8.65
2019-06-26T13:14:02.595Z,8.63
2019-06-26T13:16:25.493Z,9.00
2019-06-26T13:18:52.580Z,12.35
2019-06-26T13:21:19.385Z,10.32
2019-06-26T13:23:46.540Z,8.83
2019-06-26T13:26:13.318Z,8.98
2019-06-26T13:28:40.341Z,9.40
2019-06-26T13:31:07.079Z,10.15
2019-06-26T13:33:34.830Z,9.35
2019-06-26T13:36:01.415Z,9.85
2019-06-26T13:38:27.984Z,10.82
2019-06-26T13:40:55.725Z,10.28
2019-06-26T13:43:22.500Z,9.28
2019-06-26T13:45:49.164Z,12.80
2019-06-26T13:48:15.942Z,9.85
2019-06-26T13:50:42.606Z,9.48
2019-06-26T13:53:09.821Z,9.95
2019-06-26T13:55:36.486Z,10.08
2019-06-26T13:58:03.261Z,10.58
2019-06-26T14:00:29.826Z,10.43
2019-06-26T14:02:56.671Z,9.88
2019-06-26T14:05:23.298Z,10.80
2019-06-26T14:07:49.992Z,11.83
2019-06-26T14:10:17.079Z,10.60
2019-06-26T14:12:44.219Z,13.00
2019-06-26T14:15:11.789Z,13.95
2019-06-26T14:17:38.474Z,12.65
2019-06-26T14:20:06.724Z,13.03
2019-06-26T14:22:33.489Z,15.90
2019-06-26T14:25:00.184Z,14.68
2019-06-26T14:27:27.010Z,14.78
2019-06-26T14:29:53.714Z,14.73
2019-06-26T14:32:20.365Z,14.13
2019-06-26T14:34:47.153Z,17.17
2019-06-26T14:37:13.813Z,16.07
2019-06-26T14:39:41.140Z,15.72
2019-06-26T14:42:07.863Z,14.95
2019-06-26T14:44:34.546Z,15.70
2019-06-26T14:47:01.365Z,15.20
2019-06-26T14:49:28.232Z,15.08
2019-06-26T14:51:54.884Z,15.18
2019-06-26T14:54:21.567Z,15.00
2019-06-26T14:56:48.161Z,14.03
2019-06-26T14:59:14.782Z,13.98
2019-06-26T15:01:41.547Z,13.62
2019-06-26T15:04:08.500Z,14.00
2019-06-26T15:06:35.186Z,13.43
2019-06-26T15:09:01.857Z,13.65
2019-06-26T15:11:28.522Z,13.43
2019-06-26T15:13:55.303Z,12.28
2019-06-26T15:16:21.972Z,10.72
2019-06-26T15:18:48.551Z,9.95
2019-06-26T15:21:15.140Z,10.88
2019-06-26T15:23:41.914Z,9.08
2019-06-26T15:26:08.675Z,9.90
2019-06-26T15:28:35.666Z,9.33
2019-06-26T15:31:02.333Z,8.63
2019-06-26T15:33:29.005Z,7.85
2019-06-26T15:35:55.610Z,7.40
2019-06-26T15:38:22.372Z,7.45
2019-06-26T15:40:49.198Z,6.58
2019-06-26T15:43:16.908Z,8.15
2019-06-26T15:45:43.636Z,7.58
2019-06-26T15:48:10.364Z,7.37
2019-06-26T15:50:37.449Z,11.63
2019-06-26T15:53:04.164Z,7.30
2019-06-26T15:55:30.899Z,9.93
2019-06-26T15:58:02.960Z,9.35
2019-06-26T16:00:30.075Z,7.95
2019-06-26T16:02:56.776Z,8.73
2019-06-26T16:05:23.562Z,9.18
2019-06-26T16:07:50.353Z,9.60
2019-06-26T16:10:17.182Z,9.48
2019-06-26T16:12:43.958Z,12.82
2019-06-26T16:15:11.674Z,7.55
2019-06-26T16:17:45.246Z,8.73
2019-06-26T16:20:12.456Z,10.72
2019-06-26T16:22:39.351Z,7.97
2019-06-26T16:25:06.055Z,9.75
2019-06-26T16:27:32.737Z,9.55
2019-06-26T16:29:59.382Z,9.85
2019-06-26T16:32:26.007Z,9.00
2019-06-26T16:34:52.805Z,10.23
2019-06-26T16:37:19.590Z,11.88
2019-06-26T16:39:46.288Z,12.00
2019-06-26T16:42:13.079Z,11.48
2019-06-26T16:44:39.659Z,13.18
2019-06-26T16:47:06.334Z,10.72
2019-06-26T16:49:37.019Z,11.08
2019-06-26T16:52:03.709Z,7.87
2019-06-26T16:54:30.314Z,8.20
2019-06-26T16:56:56.960Z,14.38
2019-06-26T16:59:23.519Z,11.33
2019-06-26T17:01:50.339Z,9.75
2019-06-26T17:04:28.863Z,12.30
2019-06-26T17:06:55.452Z,10.75
2019-06-26T17:09:22.751Z,9.18
2019-06-26T17:11:49.552Z,11.93
2019-06-26T17:14:17.527Z,10.20
2019-06-26T17:16:44.241Z,12.58
2019-06-26T17:19:10.921Z,11.73
2019-06-26T17:21:37.713Z,13.30
2019-06-26T17:24:04.376Z,13.45
2019-06-26T17:26:31.192Z,13.70
2019-06-26T17:28:57.866Z,10.98
2019-06-26T17:31:24.664Z,9.18
2019-06-26T17:33:51.436Z,11.95
2019-06-26T17:36:18.146Z,12.20
2019-06-26T17:38:44.715Z,10.68
2019-06-26T17:41:13.834Z,9.53
2019-06-26T17:43:40.893Z,11.70
2019-06-26T17:46:07.575Z,9.70
2019-06-26T17:48:34.365Z,8.93
2019-06-26T17:51:01.095Z,10.90
2019-06-26T17:53:28.036Z,9.20
2019-06-26T17:55:54.748Z,10.23
2019-06-26T17:58:21.333Z,10.82
2019-06-26T18:00:48.117Z,8.58
2019-06-26T18:03:14.801Z,10.65
2019-06-26T18:05:41.677Z,9.20
2019-06-26T18:08:08.305Z,8.05
2019-06-26T18:10:34.974Z,8.78
2019-06-26T18:13:02.542Z,10.68
2019-06-26T18:15:29.305Z,8.85
2019-06-26T18:17:55.903Z,11.35
2019-06-26T18:20:23.664Z,7.17
2019-06-26T18:23:05.857Z,6.35
2019-06-26T18:25:19.038Z,7.45
2019-06-26T18:27:45.878Z,9.30
2019-06-26T18:30:12.822Z,6.20
2019-06-26T18:32:39.629Z,5.97
2019-06-26T18:35:06.819Z,7.17
2019-06-26T18:37:33.641Z,5.47
2019-06-26T18:40:00.641Z,5.37
2019-06-26T18:42:27.450Z,7.83
2019-06-26T18:44:54.120Z,6.33
2019-06-26T18:47:21.689Z,9.35
2019-06-26T18:49:48.246Z,4.90
2019-06-26T18:52:15.059Z,7.05
2019-06-26T18:54:41.838Z,5.12
2019-06-26T18:57:08.433Z,5.37
2019-06-26T18:59:35.124Z,7.70
2019-06-26T19:02:01.816Z,7.58
2019-06-26T19:04:28.851Z,5.42
2019-06-26T19:06:56.380Z,4.78
2019-06-26T19:09:23.150Z,5.37
2019-06-26T19:11:49.846Z,8.70
2019-06-26T19:14:18.964Z,6.85
2019-06-26T19:16:46.336Z,6.70
2019-06-26T19:19:13.171Z,6.40
2019-06-26T19:21:40.200Z,6.92
2019-06-26T19:24:10.464Z,5.65
2019-06-26T19:26:36.478Z,4.60
2019-06-26T19:29:03.298Z,7.60
2019-06-26T19:31:30.716Z,5.22
2019-06-26T19:33:57.314Z,6.15
2019-06-26T19:36:28.290Z,4.87
2019-06-26T19:38:52.699Z,6.75
2019-06-26T19:41:19.506Z,6.53
2019-06-26T19:43:46.167Z,5.65
2019-06-26T19:46:13.248Z,6.15
2019-06-26T19:48:39.926Z,5.40
2019-06-26T19:51:06.698Z,6.00
2019-06-26T19:53:33.299Z,4.35
2019-06-26T19:55:59.971Z,5.05
2019-06-26T19:58:26.809Z,5.30
2019-06-26T20:00:53.577Z,6.90
2019-06-26T20:03:20.385Z,4.92
2019-06-26T20:05:47.146Z,7.35
2019-06-26T20:08:15.962Z,12.82
2019-06-26T20:10:42.996Z,12.68
2019-06-26T20:13:09.795Z,7.80
2019-06-26T20:15:36.571Z,9.85
2019-06-26T20:18:04.400Z,13.43
2019-06-26T20:20:31.486Z,8.28
2019-06-26T20:23:02.126Z,8.68
2019-06-26T20:25:29.409Z,11.05
2019-06-26T20:27:57.206Z,7.87
2019-06-26T20:30:47.667Z,8.60
2019-06-26T20:33:14.454Z,13.18
2019-06-26T20:35:41.129Z,8.45
2019-06-26T20:38:07.875Z,12.73
2019-06-26T20:40:34.520Z,12.98
2019-06-26T20:43:01.556Z,14.40
2019-06-26T20:45:28.240Z,9.93
2019-06-26T20:47:55.012Z,11.57
2019-06-26T20:50:21.815Z,13.35
2019-06-26T20:52:48.506Z,12.15
2019-06-26T20:55:15.287Z,12.07
2019-06-26T20:57:41.965Z,11.65
2019-06-26T21:00:09.464Z,14.20
2019-06-26T21:02:36.448Z,17.35
2019-06-26T21:05:03.408Z,11.08
2019-06-26T21:07:30.008Z,13.35
2019-06-26T21:09:56.563Z,13.35
2019-06-26T21:12:23.355Z,11.25
2019-06-26T21:14:50.028Z,13.18
2019-06-26T21:17:17.155Z,10.25
2019-06-26T21:19:43.916Z,12.80
2019-06-26T21:22:10.589Z,13.30
2019-06-26T21:24:37.256Z,12.82
2019-06-26T21:27:04.029Z,10.88
2019-06-26T21:29:30.818Z,15.20
2019-06-26T21:31:57.583Z,15.40
2019-06-26T21:34:24.291Z,12.40
2019-06-26T21:36:51.023Z,14.10
2019-06-26T21:39:17.702Z,13.18
2019-06-26T21:41:44.387Z,11.48
2019-06-26T21:44:11.055Z,11.08
2019-06-26T21:46:57.350Z,13.03
2019-06-26T21:49:24.134Z,15.13
2019-06-26T21:51:50.735Z,10.45
2019-06-26T21:54:17.422Z,10.90
2019-06-26T21:56:44.080Z,9.20
2019-06-26T21:59:10.871Z,9.35
2019-06-26T22:01:37.668Z,10.05
2019-06-26T22:04:04.601Z,10.68
2019-06-26T22:06:31.395Z,12.25
2019-06-26T22:09:01.130Z,13.72
2019-06-26T22:11:27.976Z,13.90
2019-06-26T22:13:54.663Z,11.22
2019-06-26T22:16:21.558Z,8.93
2019-06-26T22:18:49.709Z,11.08
2019-06-26T22:21:16.535Z,10.03
2019-06-26T22:23:43.237Z,5.35
2019-06-26T22:26:13.112Z,7.30
2019-06-26T22:28:38.724Z,6.37
2019-06-26T22:31:25.145Z,8.28
2019-06-26T22:33:51.886Z,13.15
2019-06-26T22:36:18.636Z,7.33
2019-06-26T22:38:45.451Z,8.23
2019-06-26T22:41:12.239Z,12.00
2019-06-26T22:43:39.681Z,8.98
2019-06-26T22:46:06.353Z,7.83
2019-06-26T22:48:33.228Z,10.60
2019-06-26T22:50:59.923Z,8.20
2019-06-26T22:53:26.724Z,5.85
2019-06-26T22:56:06.711Z,9.78
2019-06-26T22:58:22.100Z,9.00
2019-06-26T23:01:08.402Z,9.73
2019-06-26T23:03:39.567Z,7.83
2019-06-26T23:06:06.255Z,15.32
2019-06-26T23:08:33.935Z,6.40
2019-06-26T23:11:01.796Z,8.65
2019-06-26T23:13:28.596Z,9.13
2019-06-26T23:15:55.674Z,8.45
2019-06-26T23:18:22.381Z,8.08
2019-06-26T23:20:49.051Z,8.53
2019-06-26T23:23:15.805Z,9.10
2019-06-26T23:25:42.378Z,8.58
2019-06-26T23:28:10.533Z,11.20
2019-06-26T23:30:37.232Z,11.45
2019-06-26T23:33:04.007Z,9.15
2019-06-26T23:35:30.846Z,10.58
2019-06-26T23:37:57.466Z,11.43
2019-06-26T23:40:24.252Z,9.43
2019-06-26T23:42:50.861Z,7.45
2019-06-26T23:45:17.665Z,11.95
2019-06-26T23:47:44.343Z,11.03
2019-06-26T23:50:13.188Z,9.58
2019-06-26T23:52:39.962Z,11.63
2019-06-26T23:55:06.771Z,12.30
2019-06-26T23:57:33.511Z,13.53
